Time;durP1;ratioP1;P1;durP2;ratioP2;P2;SDS_P1;SDS_P2;PMS_P1;PMS_P2;Temp;Humidity;BMP_temperature;BMP_pressure;BME280_temperature;BME280_humidity;BME280_pressure;Samples;Min_cycle;Max_cycle;Signal;HPM_P1;HPM_P2
2024/01/03 00:00:55;;;;;;;0.32;0.10;;;;;;;;;;4974790;28;20030;-76
2024/01/03 00:03:22;;;;;;;0.30;0.20;;;;;;;;;;4965836;28;20031;-74
2024/01/03 00:05:48;;;;;;;1.38;0.28;;;;;;;;;;4974374;28;20031;-72
2024/01/03 00:08:20;;;;;;;0.47;0.20;;;;;;;;;;4971887;28;20025;-75
2024/01/03 00:10:47;;;;;;;0.65;0.20;;;;;;;;;;4972228;28;20093;-74
2024/01/03 00:13:33;;;;;;;0.20;0.10;;;;;;;;;;4966395;28;20027;-75
2024/01/03 00:15:59;;;;;;;0.30;0.28;;;;;;;;;;4942111;28;20051;-73
2024/01/03 00:18:44;;;;;;;0.45;0.30;;;;;;;;;;4973081;28;20030;-72
2024/01/03 00:21:11;;;;;;;0.65;0.30;;;;;;;;;;4973995;28;20040;-75
2024/01/03 00:23:38;;;;;;;0.43;0.25;;;;;;;;;;4967112;28;20031;-75
2024/01/03 00:26:11;;;;;;;0.75;0.20;;;;;;;;;;4968588;28;20085;-75
2024/01/03 00:28:37;;;;;;;2.53;0.65;;;;;;;;;;4958616;28;20045;-73
2024/01/03 00:31:03;;;;;;;0.50;0.30;;;;;;;;;;4970969;28;20042;-73
2024/01/03 00:33:29;;;;;;;2.25;0.30;;;;;;;;;;4971607;28;20029;-73
2024/01/03 00:35:56;;;;;;;1.13;0.30;;;;;;;;;;4973761;28;20094;-74
2024/01/03 00:38:22;;;;;;;1.08;0.30;;;;;;;;;;4974098;28;20019;-74
2024/01/03 00:40:54;;;;;;;0.95;0.30;;;;;;;;;;4970011;28;20518;-73
2024/01/03 00:43:20;;;;;;;2.45;0.50;;;;;;;;;;4965052;28;20030;-73
2024/01/03 00:45:48;;;;;;;2.08;0.47;;;;;;;;;;4973914;28;20046;-73
2024/01/03 00:48:14;;;;;;;3.03;0.47;;;;;;;;;;4960449;28;20014;-74
2024/01/03 00:50:40;;;;;;;3.03;0.60;;;;;;;;;;4967759;28;20129;-74
2024/01/03 00:53:06;;;;;;;3.35;0.68;;;;;;;;;;4964299;28;20634;-73
2024/01/03 00:55:32;;;;;;;4.43;0.43;;;;;;;;;;4974185;28;20027;-74
2024/01/03 00:57:58;;;;;;;3.63;0.73;;;;;;;;;;4967755;28;20023;-74
2024/01/03 01:00:24;;;;;;;1.33;0.50;;;;;;;;;;4960409;28;20035;-73
2024/01/03 01:02:50;;;;;;;5.75;0.63;;;;;;;;;;4966105;28;20444;-73
2024/01/03 01:05:16;;;;;;;1.70;0.45;;;;;;;;;;4972373;28;20035;-73
2024/01/03 01:07:42;;;;;;;2.75;0.50;;;;;;;;;;4970123;28;20086;-74
2024/01/03 01:10:08;;;;;;;2.25;0.60;;;;;;;;;;4961336;28;20046;-73
2024/01/03 01:12:34;;;;;;;3.33;0.60;;;;;;;;;;4966489;28;20413;-73
2024/01/03 01:15:01;;;;;;;5.47;0.60;;;;;;;;;;4963504;28;20081;-73
2024/01/03 01:17:27;;;;;;;1.75;0.43;;;;;;;;;;4963255;28;20483;-73
2024/01/03 01:19:53;;;;;;;1.67;0.20;;;;;;;;;;4972416;28;20066;-73
2024/01/03 01:22:19;;;;;;;2.65;0.40;;;;;;;;;;4973365;28;20126;-73
2024/01/03 01:24:45;;;;;;;2.03;0.65;;;;;;;;;;4969857;28;20037;-73
2024/01/03 01:27:11;;;;;;;3.70;0.50;;;;;;;;;;4973152;28;20026;-73
2024/01/03 01:29:37;;;;;;;1.85;0.52;;;;;;;;;;4969313;28;20388;-73
2024/01/03 01:32:03;;;;;;;2.67;0.45;;;;;;;;;;4965154;28;20028;-73
2024/01/03 01:34:29;;;;;;;2.97;0.50;;;;;;;;;;4968321;28;20046;-73
2024/01/03 01:36:55;;;;;;;2.25;0.70;;;;;;;;;;4965221;28;20027;-74
2024/01/03 01:39:21;;;;;;;1.77;0.40;;;;;;;;;;4969966;28;20027;-74
2024/01/03 01:41:47;;;;;;;2.05;0.50;;;;;;;;;;4963683;28;20042;-73
2024/01/03 01:44:13;;;;;;;2.28;0.50;;;;;;;;;;4962451;28;20102;-73
2024/01/03 01:46:40;;;;;;;1.25;0.40;;;;;;;;;;4963193;28;20332;-74
2024/01/03 01:49:06;;;;;;;1.73;0.47;;;;;;;;;;4961455;28;20111;-73
2024/01/03 01:51:33;;;;;;;1.55;0.30;;;;;;;;;;4962343;28;20051;-73
2024/01/03 01:53:59;;;;;;;4.30;0.70;;;;;;;;;;4965653;28;20070;-73
2024/01/03 01:56:26;;;;;;;3.90;0.60;;;;;;;;;;4961576;28;20020;-74
2024/01/03 01:58:52;;;;;;;1.90;0.50;;;;;;;;;;4964349;28;20106;-74
2024/01/03 02:01:20;;;;;;;2.33;0.68;;;;;;;;;;4965985;28;20105;-73
2024/01/03 02:03:48;;;;;;;2.20;0.50;;;;;;;;;;4962786;28;20032;-73
2024/01/03 02:06:15;;;;;;;3.28;0.50;;;;;;;;;;4965261;28;20019;-74
2024/01/03 02:08:41;;;;;;;2.15;0.40;;;;;;;;;;4963405;28;20383;-74
2024/01/03 02:11:07;;;;;;;4.70;0.52;;;;;;;;;;4962409;28;20030;-74
2024/01/03 02:13:34;;;;;;;1.10;0.38;;;;;;;;;;4960497;28;20105;-73
2024/01/03 02:16:00;;;;;;;1.10;0.30;;;;;;;;;;4963825;28;20105;-73
2024/01/03 02:18:27;;;;;;;1.77;0.30;;;;;;;;;;4966824;28;20022;-73
2024/01/03 02:20:57;;;;;;;1.30;0.22;;;;;;;;;;4964358;28;20031;-73
2024/01/03 02:23:23;;;;;;;;;;;;;;;;;;4962018;28;20023;-73
2024/01/03 02:25:49;;;;;;;0.77;0.30;;;;;;;;;;4959394;28;19948;-73
2024/01/03 02:28:16;;;;;;;0.90;0.17;;;;;;;;;;4963742;28;20050;-73
2024/01/03 02:30:44;;;;;;;0.32;0.20;;;;;;;;;;4961442;28;20019;-73
2024/01/03 02:33:10;;;;;;;2.00;0.40;;;;;;;;;;4964148;28;20070;-73
2024/01/03 02:35:36;;;;;;;0.20;0.20;;;;;;;;;;4962318;28;20023;-73
2024/01/03 02:38:03;;;;;;;1.92;0.20;;;;;;;;;;4961940;28;20027;-73
2024/01/03 02:40:28;;;;;;;0.22;0.17;;;;;;;;;;4961638;28;20113;-73
2024/01/03 02:42:55;;;;;;;1.63;0.20;;;;;;;;;;4962642;28;20070;-73
2024/01/03 02:45:20;;;;;;;0.65;0.10;;;;;;;;;;4962297;28;20504;-73
2024/01/03 02:47:46;;;;;;;0.60;0.10;;;;;;;;;;4961320;28;20110;-73
2024/01/03 02:50:12;;;;;;;0.32;0.13;;;;;;;;;;4961028;28;20364;-73
2024/01/03 02:52:39;;;;;;;2.15;0.32;;;;;;;;;;4963321;28;20027;-73
2024/01/03 02:55:05;;;;;;;0.50;0.20;;;;;;;;;;4962160;28;20023;-73
2024/01/03 02:57:31;;;;;;;0.93;0.20;;;;;;;;;;4953681;28;20422;-73
2024/01/03 02:59:57;;;;;;;2.00;0.20;;;;;;;;;;4968091;28;20034;-73
2024/01/03 03:02:23;;;;;;;0.40;0.10;;;;;;;;;;4961719;28;20473;-73
2024/01/03 03:04:49;;;;;;;1.45;0.20;;;;;;;;;;4966314;28;20089;-73
2024/01/03 03:07:14;;;;;;;0.32;0.30;;;;;;;;;;4970663;28;20033;-73
2024/01/03 03:09:41;;;;;;;1.15;0.43;;;;;;;;;;4963927;28;20031;-73
2024/01/03 03:12:07;;;;;;;0.10;0.10;;;;;;;;;;4963029;28;20019;-73
2024/01/03 03:14:32;;;;;;;0.88;0.30;;;;;;;;;;4965988;28;20023;-73
2024/01/03 03:16:58;;;;;;;0.80;0.28;;;;;;;;;;4960830;28;20453;-73
2024/01/03 03:19:25;;;;;;;1.27;0.57;;;;;;;;;;4945123;28;20030;-73
2024/01/03 03:21:51;;;;;;;2.67;0.40;;;;;;;;;;4953748;28;20400;-73
2024/01/03 03:24:16;;;;;;;1.70;0.20;;;;;;;;;;4968318;28;20026;-73
2024/01/03 03:26:42;;;;;;;3.00;0.50;;;;;;;;;;4963679;28;20423;-73
2024/01/03 03:29:08;;;;;;;0.73;0.43;;;;;;;;;;4966187;28;20029;-73
2024/01/03 03:31:34;;;;;;;1.15;0.40;;;;;;;;;;4958913;28;20361;-73
2024/01/03 03:34:00;;;;;;;0.80;0.25;;;;;;;;;;4966506;28;20026;-74
2024/01/03 03:36:26;;;;;;;0.30;0.22;;;;;;;;;;4960273;28;20023;-73
2024/01/03 03:38:52;;;;;;;0.57;0.32;;;;;;;;;;4968178;28;20027;-73
2024/01/03 03:41:19;;;;;;;3.05;0.38;;;;;;;;;;4957848;28;20034;-73
2024/01/03 03:43:46;;;;;;;1.98;0.30;;;;;;;;;;4969395;28;20031;-73
2024/01/03 03:46:12;;;;;;;2.03;0.30;;;;;;;;;;4965940;28;20110;-73
2024/01/03 03:48:38;;;;;;;1.38;0.30;;;;;;;;;;4952140;28;20499;-73
2024/01/03 03:51:04;;;;;;;0.55;0.32;;;;;;;;;;4967367;28;20039;-73
2024/01/03 03:53:30;;;;;;;1.75;0.82;;;;;;;;;;4969075;28;20034;-73
2024/01/03 03:55:56;;;;;;;2.10;0.55;;;;;;;;;;4966707;28;20098;-73
2024/01/03 03:58:22;;;;;;;0.52;0.35;;;;;;;;;;4960683;28;20086;-73
2024/01/03 04:00:48;;;;;;;2.13;0.52;;;;;;;;;;4969019;28;20492;-73
2024/01/03 04:03:14;;;;;;;4.05;0.52;;;;;;;;;;4964805;28;20078;-73
2024/01/03 04:05:40;;;;;;;1.95;0.30;;;;;;;;;;4970425;28;20070;-73
2024/01/03 04:08:06;;;;;;;2.40;0.60;;;;;;;;;;4963028;28;20054;-73
2024/01/03 04:10:32;;;;;;;2.83;0.40;;;;;;;;;;4970626;28;20031;-73
2024/01/03 04:12:58;;;;;;;3.72;0.63;;;;;;;;;;4957903;28;20103;-74
2024/01/03 04:15:25;;;;;;;3.92;0.55;;;;;;;;;;4970373;28;20358;-73
2024/01/03 04:17:51;;;;;;;3.03;0.50;;;;;;;;;;4931057;28;1107754;-72
2024/01/03 04:20:17;;;;;;;2.28;0.43;;;;;;;;;;4970612;28;20031;-73
2024/01/03 04:22:45;;;;;;;5.72;0.60;;;;;;;;;;4959104;28;20030;-73
2024/01/03 04:25:11;;;;;;;2.42;0.52;;;;;;;;;;4965879;28;20439;-73
2024/01/03 04:27:37;;;;;;;1.48;0.43;;;;;;;;;;4973536;28;20444;-73
2024/01/03 04:30:04;;;;;;;1.13;0.40;;;;;;;;;;4961474;28;20030;-73
2024/01/03 04:32:30;;;;;;;2.65;0.45;;;;;;;;;;4964715;28;20032;-73
2024/01/03 04:34:56;;;;;;;3.03;0.68;;;;;;;;;;4972707;28;20027;-73
2024/01/03 04:37:22;;;;;;;7.93;1.63;;;;;;;;;;4962994;28;20368;-73
2024/01/03 04:39:48;;;;;;;2.10;0.60;;;;;;;;;;4971420;28;20027;-73
2024/01/03 04:42:14;;;;;;;3.65;0.73;;;;;;;;;;4959194;28;20059;-73
2024/01/03 04:44:44;;;;;;;3.90;0.80;;;;;;;;;;4963608;28;20484;-73
2024/01/03 04:47:10;;;;;;;;;;;;;;;;;;4963300;28;20039;-73
2024/01/03 04:49:36;;;;;;;4.82;0.77;;;;;;;;;;4969496;28;19917;-73
2024/01/03 04:52:02;;;;;;;4.43;0.85;;;;;;;;;;4961547;28;20031;-73
2024/01/03 04:54:29;;;;;;;4.43;0.65;;;;;;;;;;4969938;28;20113;-73
2024/01/03 04:56:55;;;;;;;2.55;0.68;;;;;;;;;;4966708;28;20117;-73
2024/01/03 04:59:21;;;;;;;3.25;0.73;;;;;;;;;;4961345;28;20059;-73
2024/01/03 05:01:47;;;;;;;2.33;0.73;;;;;;;;;;4962892;28;20026;-73
2024/01/03 05:04:13;;;;;;;4.60;0.77;;;;;;;;;;4967919;28;20102;-73
2024/01/03 05:06:40;;;;;;;2.90;0.70;;;;;;;;;;4967249;28;20453;-73
2024/01/03 05:09:06;;;;;;;4.95;0.75;;;;;;;;;;4960546;28;20030;-73
2024/01/03 05:11:32;;;;;;;2.90;0.70;;;;;;;;;;4968808;28;20572;-73
2024/01/03 05:13:58;;;;;;;5.82;0.63;;;;;;;;;;4956689;28;20107;-73
2024/01/03 05:16:24;;;;;;;2.60;0.52;;;;;;;;;;4973893;28;20126;-74
2024/01/03 05:18:50;;;;;;;3.38;0.90;;;;;;;;;;4972512;28;20055;-73
2024/01/03 05:21:16;;;;;;;2.63;0.73;;;;;;;;;;4972795;28;20104;-73
2024/01/03 05:23:42;;;;;;;4.47;0.80;;;;;;;;;;4970952;28;20041;-73
2024/01/03 05:26:08;;;;;;;8.15;1.08;;;;;;;;;;4969809;28;20018;-73
2024/01/03 05:28:34;;;;;;;5.07;0.93;;;;;;;;;;4968701;28;20042;-73
2024/01/03 05:31:00;;;;;;;3.85;0.85;;;;;;;;;;4965562;28;20058;-73
2024/01/03 05:33:26;;;;;;;5.20;1.00;;;;;;;;;;4962694;28;20090;-73
2024/01/03 05:35:52;;;;;;;6.53;1.02;;;;;;;;;;4972534;28;20368;-73
2024/01/03 05:38:18;;;;;;;7.00;0.88;;;;;;;;;;4969155;28;20033;-73
2024/01/03 05:40:45;;;;;;;4.28;1.00;;;;;;;;;;4964537;28;20440;-73
2024/01/03 05:43:14;;;;;;;5.15;1.00;;;;;;;;;;4960047;28;20035;-73
2024/01/03 05:45:40;;;;;;;6.28;1.23;;;;;;;;;;4971575;28;20023;-73
2024/01/03 05:48:06;;;;;;;3.70;0.80;;;;;;;;;;4956110;28;20053;-73
2024/01/03 05:50:32;;;;;;;7.07;1.15;;;;;;;;;;4973563;28;20502;-73
2024/01/03 05:52:58;;;;;;;3.90;0.90;;;;;;;;;;4969798;28;20035;-72
2024/01/03 05:55:24;;;;;;;2.95;0.95;;;;;;;;;;4966126;28;20030;-73
2024/01/03 05:57:50;;;;;;;5.28;0.90;;;;;;;;;;4960765;28;20106;-73
2024/01/03 06:00:16;;;;;;;6.50;0.98;;;;;;;;;;4965928;28;20049;-73
2024/01/03 06:02:43;;;;;;;4.68;1.10;;;;;;;;;;4966886;28;20034;-73
2024/01/03 06:05:10;;;;;;;2.65;0.85;;;;;;;;;;4979998;28;20031;-72
2024/01/03 06:07:36;;;;;;;7.70;1.05;;;;;;;;;;4980888;28;20027;-73
2024/01/03 06:10:03;;;;;;;4.65;0.60;;;;;;;;;;4978434;28;20019;-74
2024/01/03 06:12:29;;;;;;;3.17;0.73;;;;;;;;;;4978588;28;20033;-73
2024/01/03 06:14:55;;;;;;;6.13;1.33;;;;;;;;;;4963651;28;20012;-72
2024/01/03 06:17:21;;;;;;;3.72;1.40;;;;;;;;;;4963798;28;20120;-73
2024/01/03 06:19:47;;;;;;;5.60;0.65;;;;;;;;;;4966080;28;20027;-73
2024/01/03 06:22:14;;;;;;;5.38;1.55;;;;;;;;;;4959664;28;20536;-73
2024/01/03 06:24:40;;;;;;;2.67;1.00;;;;;;;;;;4963853;28;20057;-73
2024/01/03 06:27:06;;;;;;;2.50;0.60;;;;;;;;;;4963182;28;20043;-73
2024/01/03 06:29:32;;;;;;;4.90;0.90;;;;;;;;;;4963128;28;20476;-73
2024/01/03 06:31:58;;;;;;;5.53;0.90;;;;;;;;;;4960251;28;20023;-73
2024/01/03 06:34:24;;;;;;;3.92;0.70;;;;;;;;;;4965835;28;20023;-72
2024/01/03 06:36:50;;;;;;;5.35;0.90;;;;;;;;;;4962616;28;20089;-72
2024/01/03 06:39:16;;;;;;;2.60;0.80;;;;;;;;;;4959677;28;20019;-72
2024/01/03 06:41:42;;;;;;;6.22;0.57;;;;;;;;;;4962310;28;20106;-73
2024/01/03 06:44:07;;;;;;;3.88;1.00;;;;;;;;;;4961343;28;20115;-73
2024/01/03 06:46:33;;;;;;;4.47;0.95;;;;;;;;;;4951733;28;20080;-73
2024/01/03 06:49:00;;;;;;;6.95;1.13;;;;;;;;;;4971105;28;20023;-72
2024/01/03 06:51:26;;;;;;;3.75;0.60;;;;;;;;;;4972201;28;20023;-72
2024/01/03 06:53:52;;;;;;;5.53;1.00;;;;;;;;;;4964145;28;20027;-72
2024/01/03 06:56:23;;;;;;;5.88;0.80;;;;;;;;;;4957408;28;20070;-73
2024/01/03 06:58:52;;;;;;;4.88;0.80;;;;;;;;;;4962957;28;20106;-72
2024/01/03 07:01:18;;;;;;;3.92;0.95;;;;;;;;;;4962793;28;20035;-72
2024/01/03 07:03:44;;;;;;;3.70;0.70;;;;;;;;;;4967249;28;20035;-72
2024/01/03 07:06:11;;;;;;;3.80;0.70;;;;;;;;;;4967180;28;20086;-72
2024/01/03 07:08:37;;;;;;;2.05;0.57;;;;;;;;;;4963419;28;20023;-73
2024/01/03 07:11:03;;;;;;;6.30;0.70;;;;;;;;;;4948764;28;20034;-72
2024/01/03 07:13:29;;;;;;;4.03;0.60;;;;;;;;;;4963132;28;20078;-72
2024/01/03 07:15:55;;;;;;;2.25;0.50;;;;;;;;;;4970020;28;20130;-72
2024/01/03 07:18:20;;;;;;;3.75;0.68;;;;;;;;;;4962887;28;20034;-72
2024/01/03 07:20:46;;;;;;;2.58;0.70;;;;;;;;;;4970961;28;20039;-72
2024/01/03 07:23:12;;;;;;;2.85;0.77;;;;;;;;;;4970971;28;20097;-72
2024/01/03 07:25:38;;;;;;;4.50;0.55;;;;;;;;;;4969301;28;20035;-73
2024/01/03 07:28:04;;;;;;;4.93;0.60;;;;;;;;;;4935226;28;20435;-72
2024/01/03 07:30:30;;;;;;;5.20;0.98;;;;;;;;;;4971566;28;20105;-72
2024/01/03 07:32:57;;;;;;;5.40;0.65;;;;;;;;;;4961793;28;20460;-87
2024/01/03 07:35:24;;;;;;;4.80;1.00;;;;;;;;;;4962652;28;20026;-89
2024/01/03 07:37:50;;;;;;;7.70;0.93;;;;;;;;;;4964565;28;20019;-83
2024/01/03 07:40:16;;;;;;;3.30;0.98;;;;;;;;;;4971100;28;20031;-85
2024/01/03 07:42:42;;;;;;;4.45;0.70;;;;;;;;;;4958410;28;20031;-84
2024/01/03 07:45:08;;;;;;;3.15;0.50;;;;;;;;;;4964203;28;20059;-82
2024/01/03 07:47:34;;;;;;;4.28;0.95;;;;;;;;;;4958723;28;20039;-83
2024/01/03 07:50:00;;;;;;;4.65;0.90;;;;;;;;;;4965895;28;20492;-80
2024/01/03 07:52:27;;;;;;;3.53;0.90;;;;;;;;;;4968759;28;20109;-80
2024/01/03 07:54:53;;;;;;;2.63;0.90;;;;;;;;;;4958760;28;20686;-78
2024/01/03 07:57:19;;;;;;;2.03;0.60;;;;;;;;;;4962147;28;20573;-77
2024/01/03 07:59:45;;;;;;;3.20;0.77;;;;;;;;;;4969276;28;20050;-76
2024/01/03 08:02:12;;;;;;;3.00;0.73;;;;;;;;;;4963495;28;20813;-77
2024/01/03 08:04:39;;;;;;;6.30;1.23;;;;;;;;;;4973472;28;20030;-76
2024/01/03 08:07:05;;;;;;;3.80;0.77;;;;;;;;;;4963902;28;20027;-77
2024/01/03 08:09:32;;;;;;;2.60;0.60;;;;;;;;;;4958331;28;20111;-78
2024/01/03 08:11:59;;;;;;;4.60;0.57;;;;;;;;;;4968362;28;20114;-77
2024/01/03 08:14:25;;;;;;;3.08;0.50;;;;;;;;;;4962836;28;20043;-77
2024/01/03 08:16:51;;;;;;;3.63;0.82;;;;;;;;;;4969514;28;20681;-76
2024/01/03 08:19:17;;;;;;;4.00;0.90;;;;;;;;;;4970867;28;20118;-76
2024/01/03 08:21:43;;;;;;;2.88;0.80;;;;;;;;;;4968572;28;20041;-77
2024/01/03 08:24:09;;;;;;;4.38;0.57;;;;;;;;;;4959898;28;20031;-77
2024/01/03 08:26:35;;;;;;;3.72;0.93;;;;;;;;;;4968056;28;20480;-76
2024/01/03 08:29:01;;;;;;;2.55;0.65;;;;;;;;;;4967809;28;20063;-77
2024/01/03 08:31:27;;;;;;;4.18;0.70;;;;;;;;;;4961266;28;20035;-77
2024/01/03 08:33:53;;;;;;;3.95;0.60;;;;;;;;;;4965446;28;20027;-77
2024/01/03 08:36:19;;;;;;;3.83;0.80;;;;;;;;;;4958518;28;20101;-77
2024/01/03 08:38:45;;;;;;;2.30;0.65;;;;;;;;;;4964698;28;20054;-78
2024/01/03 08:41:17;;;;;;;6.35;0.80;;;;;;;;;;4957545;28;20035;-76
2024/01/03 08:43:44;;;;;;;7.88;1.48;;;;;;;;;;4955422;28;20035;-76
2024/01/03 08:46:10;;;;;;;4.18;0.60;;;;;;;;;;4971591;28;20480;-76
2024/01/03 08:48:37;;;;;;;5.28;0.70;;;;;;;;;;4972130;28;20023;-76
2024/01/03 08:51:03;;;;;;;3.85;0.80;;;;;;;;;;4964319;28;20423;-77
2024/01/03 08:53:29;;;;;;;2.05;0.60;;;;;;;;;;4966955;28;20031;-75
2024/01/03 08:55:55;;;;;;;8.00;1.42;;;;;;;;;;4965297;28;20385;-76
2024/01/03 08:58:21;;;;;;;3.13;0.50;;;;;;;;;;4973779;28;20073;-78
2024/01/03 09:00:47;;;;;;;4.10;0.70;;;;;;;;;;4972422;28;20038;-76
2024/01/03 09:03:13;;;;;;;1.33;0.63;;;;;;;;;;4966627;28;20089;-78
2024/01/03 09:05:39;;;;;;;3.70;0.73;;;;;;;;;;4964491;28;20031;-77
2024/01/03 09:08:05;;;;;;;9.23;0.93;;;;;;;;;;4969408;28;20038;-79
2024/01/03 09:10:31;;;;;;;2.17;0.55;;;;;;;;;;4968290;28;20063;-78
2024/01/03 09:12:57;;;;;;;4.72;1.05;;;;;;;;;;4970419;28;20026;-78
2024/01/03 09:15:23;;;;;;;3.22;0.60;;;;;;;;;;4968350;28;20494;-78
2024/01/03 09:17:49;;;;;;;4.15;0.70;;;;;;;;;;4961869;28;20121;-77
2024/01/03 09:20:16;;;;;;;3.90;0.63;;;;;;;;;;4969760;28;20413;-78
2024/01/03 09:22:42;;;;;;;2.05;0.32;;;;;;;;;;4971340;28;20078;-78
2024/01/03 09:25:08;;;;;;;2.65;0.93;;;;;;;;;;4962028;28;20023;-78
2024/01/03 09:27:34;;;;;;;2.22;0.55;;;;;;;;;;4968378;28;20037;-78
2024/01/03 09:30:00;;;;;;;2.65;0.50;;;;;;;;;;4965077;28;20072;-77
2024/01/03 09:32:26;;;;;;;3.40;1.05;;;;;;;;;;4961416;28;20049;-77
2024/01/03 09:34:52;;;;;;;3.95;0.40;;;;;;;;;;4957189;28;20465;-77
2024/01/03 09:37:18;;;;;;;3.08;0.50;;;;;;;;;;4959750;28;20030;-77
2024/01/03 09:39:44;;;;;;;2.67;0.70;;;;;;;;;;4966945;28;20031;-76
2024/01/03 09:42:10;;;;;;;2.10;0.40;;;;;;;;;;4962495;28;20392;-77
2024/01/03 09:44:37;;;;;;;3.78;0.47;;;;;;;;;;4963152;28;20030;-76
2024/01/03 09:47:03;;;;;;;1.60;0.35;;;;;;;;;;4959610;28;20039;-78
2024/01/03 09:49:29;;;;;;;2.30;0.57;;;;;;;;;;4962019;28;20026;-76
2024/01/03 09:51:56;;;;;;;1.90;0.68;;;;;;;;;;4964496;28;20027;-78
2024/01/03 09:54:22;;;;;;;2.97;0.65;;;;;;;;;;4964892;28;20038;-77
2024/01/03 09:56:51;;;;;;;3.45;0.73;;;;;;;;;;4962619;28;20023;-76
2024/01/03 09:59:17;;;;;;;2.67;0.50;;;;;;;;;;4961169;28;20019;-77
2024/01/03 10:01:58;;;;;;;2.75;0.60;;;;;;;;;;4964583;28;20042;-78
2024/01/03 10:04:25;;;;;;;3.70;0.90;;;;;;;;;;4965105;28;20034;-76
2024/01/03 10:06:52;;;;;;;3.63;0.50;;;;;;;;;;4959741;28;20050;-77
2024/01/03 10:09:18;;;;;;;2.47;0.73;;;;;;;;;;4966193;28;20030;-76
2024/01/03 10:11:44;;;;;;;6.53;0.95;;;;;;;;;;4961238;28;20034;-76
2024/01/03 10:14:18;;;;;;;8.63;0.80;;;;;;;;;;4970079;28;20027;-75
2024/01/03 10:16:44;;;;;;;1.55;0.68;;;;;;;;;;4962715;28;20047;-73
2024/01/03 10:19:17;;;;;;;3.85;0.70;;;;;;;;;;4967075;28;20027;-74
2024/01/03 10:21:53;;;;;;;3.40;0.70;;;;;;;;;;4966956;28;20030;-74
2024/01/03 10:24:20;;;;;;;2.70;0.68;;;;;;;;;;4969973;28;20026;-76
2024/01/03 10:26:47;;;;;;;2.33;0.52;;;;;;;;;;4964994;28;20125;-74
2024/01/03 10:29:17;;;;;;;3.90;0.70;;;;;;;;;;4964413;28;20031;-75
2024/01/03 10:31:43;;;;;;;;;;;;;;;;;;4961684;28;20043;-73
2024/01/03 10:34:15;;;;;;;4.30;0.80;;;;;;;;;;4959480;28;19949;-72
2024/01/03 10:36:41;;;;;;;4.15;0.75;;;;;;;;;;4965271;28;20030;-72
2024/01/03 10:39:08;;;;;;;3.85;0.85;;;;;;;;;;4960584;28;20011;-73
2024/01/03 10:41:34;;;;;;;3.83;0.70;;;;;;;;;;4961785;28;20047;-78
2024/01/03 10:44:03;;;;;;;4.85;1.05;;;;;;;;;;4953402;28;20501;-72
2024/01/03 10:46:29;;;;;;;4.38;0.70;;;;;;;;;;4971028;28;20035;-71
2024/01/03 10:48:56;;;;;;;3.88;0.40;;;;;;;;;;4970206;28;20019;-68
2024/01/03 10:51:23;;;;;;;4.45;0.75;;;;;;;;;;4962895;28;20031;-69
2024/01/03 10:53:52;;;;;;;2.15;0.60;;;;;;;;;;4968254;28;20472;-69
2024/01/03 10:56:20;;;;;;;3.60;0.93;;;;;;;;;;4967672;28;20058;-70
2024/01/03 10:58:46;;;;;;;2.38;0.70;;;;;;;;;;4964639;28;20090;-70
2024/01/03 11:01:28;;;;;;;1.40;0.47;;;;;;;;;;4970523;28;20038;-70
2024/01/03 11:04:13;;;;;;;2.65;0.60;;;;;;;;;;4967854;28;20089;-70
2024/01/03 11:06:45;;;;;;;4.07;1.00;;;;;;;;;;4956543;28;20043;-71
2024/01/03 11:09:11;;;;;;;2.55;1.00;;;;;;;;;;4963152;28;20027;-71
2024/01/03 11:11:38;;;;;;;3.53;0.77;;;11.20;99.90;;;;;;4964007;28;20038;-71
2024/01/03 11:14:19;;;;;;;5.20;0.90;;;11.10;99.90;;;;;;4967940;28;20035;-71
2024/01/03 11:16:45;;;;;;;3.00;0.75;;;11.10;99.90;;;;;;4958609;28;20062;-71
2024/01/03 11:19:11;;;;;;;5.22;1.00;;;11.20;99.90;;;;;;4965156;28;20476;-71
2024/01/03 11:21:42;;;;;;;1.55;0.52;;;11.20;99.90;;;;;;4965909;28;20042;-72
2024/01/03 11:24:07;;;;;;;2.60;0.70;;;11.20;99.90;;;;;;4956727;28;20116;-72
2024/01/03 11:26:52;;;;;;;1.55;0.40;;;11.30;99.90;;;;;;4963637;28;20175;-70
2024/01/03 11:29:36;;;;;;;1.05;0.43;;;11.50;99.90;;;;;;4972514;28;20023;-69
2024/01/03 11:32:04;;;;;;;1.70;0.45;;;11.50;99.90;;;;;;4960924;28;20167;-69
2024/01/03 11:34:45;;;;;;;1.98;0.38;;;11.40;99.90;;;;;;4964997;28;20113;-70
2024/01/03 11:37:11;;;;;;;1.77;0.50;;;11.40;99.90;;;;;;4973145;28;20027;-69
2024/01/03 11:39:49;;;;;;;3.30;0.60;;;11.40;99.90;;;;;;4962936;28;20038;-70
2024/01/03 11:42:25;;;;;;;3.90;0.65;;;11.40;99.90;;;;;;4965019;28;20039;-70
2024/01/03 11:45:13;;;;;;;3.30;0.47;;;11.40;99.90;;;;;;4963875;28;20099;-69
2024/01/03 11:47:40;;;;;;;3.72;0.70;;;11.40;99.90;;;;;;4972740;28;20098;-69
2024/01/03 11:50:08;;;;;;;2.80;0.60;;;11.40;99.90;;;;;;4962301;28;20610;-69
2024/01/03 11:52:38;;;;;;;2.80;0.60;;;11.40;99.90;;;;;;4966561;28;20086;-71
2024/01/03 11:55:06;;;;;;;3.20;0.75;;;11.40;99.90;;;;;;4973464;28;20111;-69
2024/01/03 11:57:35;;;;;;;2.63;0.60;;;11.40;99.90;;;;;;4963542;28;21275;-70
2024/01/03 12:00:02;;;;;;;1.67;0.50;;;11.50;99.90;;;;;;4972149;28;20034;-71
2024/01/03 12:02:27;;;;;;;2.80;0.63;;;11.60;99.90;;;;;;4971755;28;20058;-71
2024/01/03 12:05:05;;;;;;;2.55;0.60;;;11.60;99.90;;;;;;4965555;28;20066;-70
2024/01/03 12:07:33;;;;;;;2.28;0.50;;;11.60;99.90;;;;;;4962481;28;20051;-71
2024/01/03 12:10:00;;;;;;;6.68;1.38;;;11.60;99.90;;;;;;4967051;28;20038;-68
2024/01/03 12:12:26;;;;;;;1.63;0.50;;;11.60;99.90;;;;;;4961511;28;20030;-70
2024/01/03 12:14:55;;;;;;;3.53;0.70;;;11.70;99.90;;;;;;4966075;28;20483;-69
2024/01/03 12:17:28;;;;;;;2.53;0.52;;;11.80;99.90;;;;;;4964716;28;20058;-70
2024/01/03 12:20:05;;;;;;;4.00;0.80;;;11.80;99.90;;;;;;4972488;28;20023;-70
2024/01/03 12:22:31;;;;;;;2.92;0.70;;;11.90;99.90;;;;;;4960236;28;20034;-70
2024/01/03 12:24:56;;;;;;;2.92;0.77;;;11.90;99.90;;;;;;4960787;28;20114;-70
2024/01/03 12:27:25;;;;;;;1.25;0.40;;;11.70;99.90;;;;;;4969570;28;20031;-70
2024/01/03 12:29:51;;;;;;;1.00;0.47;;;11.60;99.90;;;;;;4973019;28;20026;-70
2024/01/03 12:32:18;;;;;;;1.80;0.50;;;11.40;99.90;;;;;;4937649;29;20023;-70
2024/01/03 12:34:46;;;;;;;1.13;0.43;;;11.30;99.90;;;;;;4970166;28;20031;-71
2024/01/03 12:37:12;;;;;;;3.70;0.40;;;11.30;99.90;;;;;;4972028;28;20039;-71
2024/01/03 12:39:39;;;;;;;2.22;0.80;;;11.20;99.90;;;;;;4967551;28;20110;-71
2024/01/03 12:42:07;;;;;;;1.70;0.45;;;11.10;99.90;;;;;;4960418;28;20467;-72
2024/01/03 12:44:33;;;;;;;2.35;0.50;;;10.90;99.90;;;;;;4967759;28;20096;-71
2024/01/03 12:46:58;;;;;;;1.48;0.30;;;10.90;99.90;;;;;;4973223;28;20038;-72
2024/01/03 12:49:24;;;;;;;0.93;0.30;;;11.00;99.90;;;;;;4964171;28;20027;-72
2024/01/03 12:51:51;;;;;;;1.20;0.52;;;11.10;99.90;;;;;;4957308;28;20464;-72
2024/01/03 12:54:17;;;;;;;1.02;0.40;;;11.20;99.90;;;;;;4969837;28;20034;-70
2024/01/03 12:56:42;;;;;;;7.53;0.55;;;11.30;99.90;;;;;;4967094;28;20038;-72
2024/01/03 12:59:08;;;;;;;2.22;0.40;;;11.20;99.90;;;;;;4961098;28;20106;-71
2024/01/03 13:01:34;;;;;;;1.90;0.50;;;11.20;99.90;;;;;;4969242;28;20035;-70
2024/01/03 13:03:59;;;;;;;1.33;0.60;;;11.10;99.90;;;;;;4969505;28;20384;-70
2024/01/03 13:06:25;;;;;;;2.42;0.60;;;11.10;99.90;;;;;;4958712;28;20024;-70
2024/01/03 13:08:50;;;;;;;2.50;0.50;;;11.20;99.90;;;;;;4966769;28;20023;-72
2024/01/03 13:11:16;;;;;;;2.20;0.40;;;11.20;99.90;;;;;;4971499;28;20042;-72
2024/01/03 13:13:42;;;;;;;2.03;0.40;;;11.20;99.90;;;;;;4961478;28;20452;-72
2024/01/03 13:16:07;;;;;;;3.83;0.47;;;11.30;99.90;;;;;;4960872;28;20484;-70
2024/01/03 13:18:33;;;;;;;1.33;0.50;;;11.30;99.90;;;;;;4969724;28;20039;-70
2024/01/03 13:20:58;;;;;;;2.05;0.50;;;11.30;99.90;;;;;;4972566;28;20031;-72
2024/01/03 13:23:24;;;;;;;2.25;0.57;;;11.30;99.90;;;;;;4967232;28;20512;-70
2024/01/03 13:25:49;;;;;;;4.30;1.00;;;11.30;99.90;;;;;;4956213;28;20039;-68
2024/01/03 13:28:15;;;;;;;5.00;0.95;;;11.40;99.90;;;;;;4968089;28;20034;-68
2024/01/03 13:30:41;;;;;;;3.08;1.40;;;11.40;99.90;;;;;;4966275;28;20038;-69
2024/01/03 13:33:06;;;;;;;6.75;1.00;;;11.50;99.90;;;;;;4960632;28;20253;-68
2024/01/03 13:35:32;;;;;;;4.20;0.73;;;11.50;99.90;;;;;;4968100;28;20041;-68
2024/01/03 13:37:58;;;;;;;1.55;0.50;;;11.50;99.90;;;;;;4954736;28;20054;-68
2024/01/03 13:40:24;;;;;;;7.07;0.70;;;11.50;99.90;;;;;;4962855;28;20172;-68
2024/01/03 13:42:49;;;;;;;4.78;0.90;;;11.50;99.90;;;;;;4964799;28;20126;-69
2024/01/03 13:45:15;;;;;;;3.35;0.77;;;11.20;99.90;;;;;;4966858;28;20037;-69
2024/01/03 13:47:40;;;;;;;3.92;0.70;;;11.10;99.90;;;;;;4969799;28;20031;-69
2024/01/03 13:50:06;;;;;;;2.47;0.70;;;11.00;99.90;;;;;;4968241;28;20531;-69
2024/01/03 13:52:33;;;;;;;3.60;0.60;;;10.90;99.90;;;;;;4966461;28;20031;-69
2024/01/03 13:55:01;;;;;;;3.05;0.75;;;10.70;99.90;;;;;;4959287;28;20031;-68
2024/01/03 13:57:26;;;;;;;3.80;0.47;;;10.50;99.90;;;;;;4967628;28;20031;-69
2024/01/03 13:59:52;;;;;;;2.92;0.60;;;10.20;99.90;;;;;;4965656;28;20031;-71
2024/01/03 14:02:17;;;;;;;4.78;0.98;;;10.10;99.90;;;;;;4968748;28;20071;-70
2024/01/03 14:04:43;;;;;;;1.95;0.47;;;9.90;99.90;;;;;;4962259;28;20058;-70
2024/01/03 14:07:08;;;;;;;2.50;0.60;;;9.90;99.90;;;;;;4968686;28;20031;-70
2024/01/03 14:09:38;;;;;;;3.25;0.80;;;9.80;99.90;;;;;;4972833;28;20066;-70
2024/01/03 14:12:03;;;;;;;1.77;0.40;;;9.70;99.90;;;;;;4959577;28;20113;-68
2024/01/03 14:14:30;;;;;;;3.15;0.50;;;9.70;99.90;;;;;;4964279;28;20106;-69